createdAt,value
2022-10-11T00:00:11.189Z,99.99
2022-10-11T00:01:11.198Z,99.99
2022-10-11T00:02:11.202Z,99.99
2022-10-11T00:03:11.131Z,99.99
2022-10-11T00:04:11.232Z,99.99
2022-10-11T00:05:11.121Z,99.99
2022-10-11T00:06:11.195Z,99.99
2022-10-11T00:07:11.165Z,99.99
2022-10-11T00:08:11.202Z,99.99
2022-10-11T00:09:11.169Z,99.99
2022-10-11T00:10:11.032Z,99.99
2022-10-11T00:11:11.129Z,99.99
2022-10-11T00:12:10.994Z,99.99
2022-10-11T00:13:11.055Z,99.99
2022-10-11T00:14:11.026Z,99.99
2022-10-11T00:15:11.078Z,99.99
2022-10-11T00:16:11.017Z,99.99
2022-10-11T00:17:10.913Z,99.99
2022-10-11T00:18:10.950Z,99.99
2022-10-11T00:19:10.877Z,99.99
2022-10-11T00:20:10.907Z,99.99
2022-10-11T00:21:10.951Z,99.99
2022-10-11T00:22:10.866Z,99.99
2022-10-11T00:23:10.936Z,99.99
2022-10-11T00:24:10.893Z,99.99
2022-10-11T00:25:10.864Z,99.99
2022-10-11T00:26:10.824Z,99.99
2022-10-11T00:27:10.797Z,99.99
2022-10-11T00:28:10.870Z,99.99
2022-10-11T00:29:10.804Z,99.99
2022-10-11T00:30:10.817Z,99.99
2022-10-11T00:31:10.774Z,99.99
2022-10-11T00:32:10.812Z,99.99
2022-10-11T00:33:10.717Z,99.99
2022-10-11T00:34:10.783Z,99.99
2022-10-11T00:35:10.740Z,99.99
2022-10-11T00:36:10.686Z,99.99
2022-10-11T00:37:10.656Z,99.99
2022-10-11T00:38:10.716Z,99.99
2022-10-11T00:39:10.676Z,99.99
2022-10-11T00:40:10.633Z,99.99
2022-10-11T00:41:11.175Z,99.99
2022-10-11T00:42:10.609Z,99.99
2022-10-11T00:43:10.596Z,99.99
2022-10-11T00:44:10.530Z,99.99
2022-10-11T00:45:11.402Z,99.99
2022-10-11T00:46:10.555Z,99.99
2022-10-11T00:47:10.517Z,99.99
2022-10-11T00:48:10.545Z,99.99
2022-10-11T00:49:10.525Z,99.99
2022-10-11T00:50:10.587Z,99.99
2022-10-11T00:51:10.473Z,99.99
2022-10-11T00:52:10.453Z,99.99
2022-10-11T00:53:10.428Z,99.99
2022-10-11T00:54:10.398Z,99.99
2022-10-11T00:55:10.431Z,99.99
2022-10-11T00:56:10.389Z,99.99
2022-10-11T00:57:10.402Z,99.99
2022-10-11T00:58:10.398Z,99.99
2022-10-11T00:59:10.408Z,99.99
2022-10-11T01:00:10.420Z,99.99
2022-10-11T01:01:10.537Z,99.99
2022-10-11T01:02:10.296Z,99.99
2022-10-11T01:03:11.238Z,99.99
2022-10-11T01:04:10.304Z,99.99
2022-10-11T01:05:28.561Z,99.99
2022-10-11T01:06:11.281Z,99.99
2022-10-11T01:07:10.252Z,99.99
2022-10-11T01:08:10.294Z,99.99
2022-10-11T01:09:10.268Z,99.99
2022-10-11T01:10:10.211Z,99.99
2022-10-11T01:11:10.295Z,99.99
2022-10-11T01:12:11.315Z,99.99
2022-10-11T01:13:10.190Z,99.99
2022-10-11T01:14:10.203Z,99.99
2022-10-11T01:15:10.281Z,99.99
2022-10-11T01:16:10.127Z,99.99
2022-10-11T01:17:10.890Z,99.99
2022-10-11T01:18:10.084Z,99.99
2022-10-11T01:19:10.149Z,99.99
2022-10-11T01:20:11.564Z,99.99
2022-10-11T01:21:10.047Z,99.99
2022-10-11T01:22:10.006Z,99.99
2022-10-11T01:23:10.033Z,99.99
2022-10-11T01:24:10.681Z,99.99
2022-10-11T01:25:10.015Z,99.99
2022-10-11T01:26:09.987Z,99.99
2022-10-11T01:27:10.094Z,99.99
2022-10-11T01:28:10.081Z,99.99
2022-10-11T01:29:10.005Z,99.99
2022-10-11T01:30:09.962Z,99.99
2022-10-11T01:31:09.914Z,99.99
2022-10-11T01:32:10.731Z,99.99
2022-10-11T01:33:09.877Z,99.99
2022-10-11T01:34:09.866Z,99.99
2022-10-11T01:35:10.696Z,99.99
2022-10-11T01:36:10.688Z,99.99
2022-10-11T01:37:09.873Z,99.99
2022-10-11T01:38:10.670Z,99.99
2022-10-11T01:39:09.844Z,99.99
2022-10-11T01:40:10.869Z,99.99
2022-10-11T01:41:11.301Z,99.99
2022-10-11T01:42:09.890Z,99.99
2022-10-11T01:43:09.752Z,99.99
2022-10-11T01:44:09.789Z,99.99
2022-10-11T01:45:09.782Z,99.99
2022-10-11T01:46:10.670Z,99.99
2022-10-11T01:47:10.761Z,99.99
2022-10-11T01:48:09.805Z,99.99
2022-10-11T01:49:09.647Z,99.99
2022-10-11T01:50:09.889Z,99.99
2022-10-11T01:51:10.528Z,99.99
2022-10-11T01:52:10.347Z,99.99
2022-10-11T01:53:09.580Z,99.99
2022-10-11T01:54:09.638Z,99.99
2022-10-11T01:55:10.462Z,99.99
2022-10-11T01:56:10.469Z,99.99
2022-10-11T01:57:10.379Z,99.99
2022-10-11T01:58:09.567Z,99.99
2022-10-11T01:59:09.544Z,99.99
2022-10-11T02:00:09.552Z,99.99
2022-10-11T02:01:09.559Z,99.99
2022-10-11T02:02:10.457Z,99.99
2022-10-11T02:03:10.313Z,99.99
2022-10-11T02:04:10.921Z,99.99
2022-10-11T02:05:09.492Z,99.99
2022-10-11T02:06:09.462Z,99.99
2022-10-11T02:07:09.466Z,99.99
2022-10-11T02:08:10.362Z,99.99
2022-10-11T02:09:09.507Z,99.99
2022-10-11T02:10:09.383Z,99.99
2022-10-11T02:11:09.399Z,99.99
2022-10-11T02:12:09.542Z,99.99
2022-10-11T02:13:09.412Z,99.99
2022-10-11T02:14:09.584Z,99.99
2022-10-11T02:15:09.575Z,99.99
2022-10-11T02:16:09.391Z,99.99
2022-10-11T02:17:09.303Z,99.99
2022-10-11T02:18:09.335Z,99.99
2022-10-11T02:19:09.305Z,99.99
2022-10-11T02:20:09.499Z,99.99
2022-10-11T02:21:09.540Z,99.99
2022-10-11T02:22:09.219Z,99.99
2022-10-11T02:23:09.194Z,99.99
2022-10-11T02:24:09.263Z,99.99
2022-10-11T02:25:09.523Z,99.99
2022-10-11T02:26:09.894Z,99.99
2022-10-11T02:27:09.258Z,99.99
2022-10-11T02:28:09.231Z,99.99
2022-10-11T02:29:09.113Z,99.99
2022-10-11T02:30:09.150Z,99.99
2022-10-11T02:31:09.935Z,99.99
2022-10-11T02:32:09.085Z,99.99
2022-10-11T02:33:09.052Z,99.99
2022-10-11T02:34:09.054Z,99.99
2022-10-11T02:35:09.134Z,99.99
2022-10-11T02:36:09.957Z,99.99
2022-10-11T02:37:09.866Z,99.99
2022-10-11T02:38:09.153Z,99.99
2022-10-11T02:39:09.121Z,99.99
2022-10-11T02:40:09.125Z,99.99
2022-10-11T02:41:09.086Z,99.99
2022-10-11T02:42:09.067Z,99.99
2022-10-11T02:43:09.808Z,99.99
2022-10-11T02:44:10.328Z,99.99
2022-10-11T02:45:09.079Z,99.99
2022-10-11T02:46:09.431Z,99.99
2022-10-11T02:47:09.165Z,99.99
2022-10-11T02:48:09.876Z,99.99
2022-10-11T02:49:08.933Z,99.99
2022-10-11T02:50:09.666Z,99.99
2022-10-11T02:51:08.905Z,99.99
2022-10-11T02:52:08.862Z,99.99
2022-10-11T02:53:09.137Z,99.99
2022-10-11T02:54:08.875Z,99.99
2022-10-11T02:55:08.794Z,99.99
2022-10-11T02:56:08.941Z,99.99
2022-10-11T02:57:08.725Z,99.99
2022-10-11T02:58:08.698Z,99.99
2022-10-11T02:59:08.763Z,99.99
2022-10-11T03:00:08.730Z,99.99
2022-10-11T03:01:08.734Z,99.99
2022-10-11T03:02:08.668Z,99.99
2022-10-11T03:03:08.625Z,99.99
2022-10-11T03:04:08.674Z,99.99
2022-10-11T03:05:08.662Z,99.99
2022-10-11T03:06:09.024Z,99.99
2022-10-11T03:07:08.592Z,99.99
2022-10-11T03:08:08.747Z,99.99
2022-10-11T03:09:08.592Z,99.99
2022-10-11T03:10:08.684Z,99.99
2022-10-11T03:11:08.553Z,99.99
2022-10-11T03:12:08.524Z,99.99
2022-10-11T03:13:08.475Z,99.99
2022-10-11T03:14:08.514Z,99.99
2022-10-11T03:15:08.519Z,99.99
2022-10-11T03:16:08.893Z,99.99
2022-10-11T03:17:34.547Z,99.99
2022-10-11T03:18:10.296Z,99.99
2022-10-11T03:19:08.466Z,99.99
2022-10-11T03:20:08.446Z,99.99
2022-10-11T03:21:08.395Z,99.99
2022-10-11T03:22:09.127Z,99.99
2022-10-11T03:23:08.391Z,99.99
2022-10-11T03:24:08.389Z,99.99
2022-10-11T03:25:08.397Z,99.99
2022-10-11T03:26:08.903Z,99.99
2022-10-11T03:27:08.310Z,99.99
2022-10-11T03:28:08.366Z,99.99
2022-10-11T03:29:08.348Z,99.99
2022-10-11T03:30:08.285Z,99.99
2022-10-11T03:31:08.284Z,99.99
2022-10-11T03:32:08.369Z,99.99
2022-10-11T03:33:08.238Z,99.99
2022-10-11T03:34:08.239Z,99.99
2022-10-11T03:35:08.276Z,99.99
2022-10-11T03:36:08.428Z,99.99
2022-10-11T03:37:08.182Z,99.99
2022-10-11T03:38:12.273Z,99.99
2022-10-11T03:39:08.122Z,99.99
2022-10-11T03:40:08.487Z,99.99
2022-10-11T03:41:08.132Z,99.99
2022-10-11T03:42:08.105Z,99.99
2022-10-11T03:43:08.195Z,99.99
2022-10-11T03:44:08.125Z,99.99
2022-10-11T03:45:08.147Z,99.99
2022-10-11T03:46:08.715Z,99.99
2022-10-11T03:47:08.074Z,99.99
2022-10-11T03:48:08.093Z,99.99
2022-10-11T03:49:08.013Z,99.99
2022-10-11T03:50:08.065Z,99.99
2022-10-11T03:51:08.044Z,99.99
2022-10-11T03:52:07.980Z,99.99
2022-10-11T03:53:07.973Z,99.99
2022-10-11T03:54:07.963Z,99.99
2022-10-11T03:55:07.978Z,99.99
2022-10-11T03:56:08.689Z,99.99
2022-10-11T03:57:07.873Z,99.99
2022-10-11T03:58:07.914Z,99.99
2022-10-11T03:59:07.964Z,99.99
2022-10-11T04:00:07.938Z,99.99
2022-10-11T04:01:07.883Z,99.99
2022-10-11T04:02:07.921Z,99.99
2022-10-11T04:03:07.817Z,99.99
2022-10-11T04:04:07.897Z,99.99
2022-10-11T04:05:07.899Z,99.99
2022-10-11T04:06:08.480Z,99.99
2022-10-11T04:07:07.965Z,99.99
2022-10-11T04:08:11.897Z,99.99
2022-10-11T04:09:07.759Z,99.99
2022-10-11T04:10:07.788Z,99.99
2022-10-11T04:11:07.799Z,99.99
2022-10-11T04:12:07.771Z,99.99
2022-10-11T04:13:07.718Z,99.99
2022-10-11T04:14:07.681Z,99.99
2022-10-11T04:15:07.681Z,99.99
2022-10-11T04:16:08.076Z,99.99
2022-10-11T04:17:07.620Z,99.99
2022-10-11T04:18:07.619Z,99.99
2022-10-11T04:19:07.657Z,99.99
2022-10-11T04:20:07.714Z,99.99
2022-10-11T04:21:08.287Z,99.99
2022-10-11T04:22:07.600Z,99.99
2022-10-11T04:23:07.652Z,99.99
2022-10-11T04:24:07.530Z,99.99
2022-10-11T04:25:07.558Z,99.99
2022-10-11T04:26:08.121Z,99.99
2022-10-11T04:27:08.268Z,99.99
2022-10-11T04:28:07.478Z,99.99
2022-10-11T04:29:07.461Z,99.99
2022-10-11T04:30:07.458Z,99.99
2022-10-11T04:31:07.430Z,99.99
2022-10-11T04:32:07.481Z,99.99
2022-10-11T04:33:07.380Z,99.99
2022-10-11T04:34:07.404Z,99.99
2022-10-11T04:35:07.359Z,99.99
2022-10-11T04:36:07.980Z,99.99
2022-10-11T04:37:07.445Z,99.99
2022-10-11T04:38:07.349Z,99.99
2022-10-11T04:39:07.328Z,99.99
2022-10-11T04:40:07.316Z,99.99
2022-10-11T04:41:07.359Z,99.99
2022-10-11T04:42:07.362Z,99.99
2022-10-11T04:43:07.379Z,99.99
2022-10-11T04:44:07.378Z,99.99
2022-10-11T04:45:08.112Z,99.99
2022-10-11T04:46:08.411Z,99.99
2022-10-11T04:47:07.216Z,99.99
2022-10-11T04:48:08.042Z,99.99
2022-10-11T04:49:07.993Z,99.99
2022-10-11T04:50:07.193Z,99.99
2022-10-11T04:51:08.041Z,99.99
2022-10-11T04:52:07.155Z,99.99
2022-10-11T04:53:07.143Z,99.99
2022-10-11T04:54:07.974Z,99.99
2022-10-11T04:55:07.884Z,99.99
2022-10-11T04:56:07.621Z,99.99
2022-10-11T04:57:07.130Z,99.99
2022-10-11T04:58:07.054Z,99.99
2022-10-11T04:59:08.496Z,99.99
2022-10-11T05:00:07.073Z,99.99
2022-10-11T05:01:07.362Z,99.99
2022-10-11T05:02:07.196Z,99.99
2022-10-11T05:03:07.874Z,99.99
2022-10-11T05:04:07.784Z,99.99
2022-10-11T05:05:08.061Z,99.99
2022-10-11T05:06:07.643Z,99.99
2022-10-11T05:07:07.273Z,99.99
2022-10-11T05:08:07.934Z,99.99
2022-10-11T05:09:06.934Z,99.99
2022-10-11T05:10:06.950Z,99.99
2022-10-11T05:11:06.897Z,99.99
2022-10-11T05:12:07.788Z,99.99
2022-10-11T05:13:06.914Z,99.99
2022-10-11T05:14:07.590Z,99.99
2022-10-11T05:15:06.845Z,99.99
2022-10-11T05:16:10.782Z,99.99
2022-10-11T05:17:06.860Z,99.99
2022-10-11T05:18:07.716Z,99.99
2022-10-11T05:19:07.802Z,99.99
2022-10-11T05:20:07.558Z,99.99
2022-10-11T05:21:07.736Z,99.99
2022-10-11T05:22:06.736Z,99.99
2022-10-11T05:23:06.802Z,99.99
2022-10-11T05:24:06.715Z,99.99
2022-10-11T05:25:07.564Z,99.99
2022-10-11T05:26:07.132Z,99.99
2022-10-11T05:27:06.732Z,99.99
2022-10-11T05:28:07.636Z,99.99
2022-10-11T05:29:07.427Z,99.99
2022-10-11T05:30:06.626Z,99.99
2022-10-11T05:31:07.501Z,99.99
2022-10-11T05:32:07.405Z,99.99
2022-10-11T05:33:06.650Z,99.99
2022-10-11T05:34:07.458Z,99.99
2022-10-11T05:35:07.373Z,99.99
2022-10-11T05:36:07.814Z,99.99
2022-10-11T05:37:06.542Z,99.99
2022-10-11T05:38:06.508Z,99.99
2022-10-11T05:39:06.665Z,99.99
2022-10-11T05:40:07.408Z,99.99
2022-10-11T05:41:07.299Z,99.99
2022-10-11T05:42:09.902Z,99.99
2022-10-11T05:43:06.528Z,99.99
2022-10-11T05:44:06.450Z,99.99
2022-10-11T05:45:06.407Z,99.99
2022-10-11T05:46:06.766Z,99.99
2022-10-11T05:47:07.241Z,99.99
2022-10-11T05:48:06.561Z,99.99
2022-10-11T05:49:06.391Z,99.99
2022-10-11T05:50:06.492Z,99.99
2022-10-11T05:51:07.117Z,99.99
2022-10-11T05:52:06.522Z,99.99
2022-10-11T05:53:06.491Z,99.99
2022-10-11T05:54:06.581Z,99.99
2022-10-11T05:55:07.297Z,99.99
2022-10-11T05:56:06.637Z,99.99
2022-10-11T05:57:07.041Z,99.99
2022-10-11T05:58:06.215Z,99.99
2022-10-11T05:59:06.307Z,99.99
2022-10-11T06:00:06.210Z,99.99
2022-10-11T06:01:07.247Z,99.99
2022-10-11T06:02:07.088Z,99.99
2022-10-11T06:03:06.501Z,99.99
2022-10-11T06:04:06.162Z,99.99
2022-10-11T06:05:06.162Z,99.99
2022-10-11T06:06:06.524Z,99.99
2022-10-11T06:07:06.102Z,99.99
2022-10-11T06:08:06.120Z,99.99
2022-10-11T06:09:06.930Z,99.99
2022-10-11T06:10:06.072Z,99.99
2022-10-11T06:11:10.216Z,99.99
2022-10-11T06:12:07.030Z,99.99
2022-10-11T06:13:06.004Z,99.99
2022-10-11T06:14:06.989Z,99.99
2022-10-11T06:15:06.865Z,99.99
2022-10-11T06:16:06.435Z,99.99
2022-10-11T06:17:05.964Z,99.99
2022-10-11T06:18:05.983Z,99.99
2022-10-11T06:19:07.415Z,99.99
2022-10-11T06:20:05.914Z,99.99
2022-10-11T06:21:05.935Z,99.99
2022-10-11T06:22:05.880Z,99.99
2022-10-11T06:23:05.931Z,99.99
2022-10-11T06:24:05.906Z,99.99
2022-10-11T06:25:07.335Z,99.99
2022-10-11T06:26:06.118Z,99.99
2022-10-11T06:27:06.013Z,99.99
2022-10-11T06:28:05.864Z,99.99
2022-10-11T06:29:05.869Z,99.99
2022-10-11T06:30:06.695Z,99.99
2022-10-11T06:31:06.597Z,99.99
2022-10-11T06:32:05.857Z,99.99
2022-10-11T06:33:05.849Z,99.99
2022-10-11T06:34:05.766Z,99.99
2022-10-11T06:35:06.475Z,99.99
2022-10-11T06:36:07.086Z,99.99
2022-10-11T06:37:07.137Z,99.99
2022-10-11T06:38:05.845Z,99.99
2022-10-11T06:39:05.827Z,99.99
2022-10-11T06:40:05.789Z,99.99
2022-10-11T06:41:05.662Z,99.99
2022-10-11T06:42:05.625Z,99.99
2022-10-11T06:43:05.606Z,99.99
2022-10-11T06:44:06.655Z,99.99
2022-10-11T06:45:06.538Z,99.99
2022-10-11T06:46:06.137Z,99.99
2022-10-11T06:47:05.862Z,99.99
2022-10-11T06:48:06.507Z,99.99
2022-10-11T06:49:06.419Z,99.99
2022-10-11T06:50:06.318Z,99.99
2022-10-11T06:51:06.469Z,99.99
2022-10-11T06:52:05.469Z,99.99
2022-10-11T06:53:06.278Z,99.99
2022-10-11T06:54:05.438Z,99.99
2022-10-11T06:55:05.431Z,99.99
2022-10-11T06:56:05.665Z,99.99
2022-10-11T06:57:05.449Z,99.99
2022-10-11T06:58:05.378Z,99.99
2022-10-11T06:59:05.420Z,99.99
2022-10-11T07:00:07.955Z,99.99
2022-10-11T07:01:06.393Z,99.99
2022-10-11T07:02:05.342Z,99.99
2022-10-11T07:03:05.361Z,99.99
2022-10-11T07:04:05.320Z,99.99
2022-10-11T07:05:06.151Z,99.99
2022-10-11T07:06:05.626Z,99.99
2022-10-11T07:07:05.282Z,99.99
2022-10-11T07:08:05.284Z,99.99
2022-10-11T07:09:05.253Z,99.99
2022-10-11T07:10:05.211Z,99.99
2022-10-11T07:11:05.193Z,99.99
2022-10-11T07:12:05.193Z,99.99
2022-10-11T07:13:05.182Z,99.99
2022-10-11T07:14:05.192Z,99.99
2022-10-11T07:15:05.161Z,99.99
2022-10-11T07:16:05.525Z,99.99
2022-10-11T07:17:05.109Z,99.99
2022-10-11T07:18:05.083Z,99.99
2022-10-11T07:19:05.102Z,99.99
2022-10-11T07:20:05.064Z,99.99
2022-10-11T07:21:05.095Z,99.99
2022-10-11T07:22:05.054Z,99.99
2022-10-11T07:23:05.962Z,99.99
2022-10-11T07:24:06.494Z,99.99
2022-10-11T07:25:06.024Z,99.99
2022-10-11T07:26:05.443Z,99.99
2022-10-11T07:27:04.975Z,99.99
2022-10-11T07:28:05.045Z,99.99
2022-10-11T07:29:05.001Z,99.99
2022-10-11T07:30:06.415Z,99.99
2022-10-11T07:31:04.933Z,99.99
2022-10-11T07:32:04.931Z,99.99
2022-10-11T07:33:04.917Z,99.99
2022-10-11T07:34:05.705Z,99.99
2022-10-11T07:35:06.582Z,99.99
2022-10-11T07:36:05.112Z,99.99
2022-10-11T07:37:05.647Z,99.99
2022-10-11T07:38:04.828Z,99.99
2022-10-11T07:39:04.825Z,99.99
2022-10-11T07:40:04.836Z,99.99
2022-10-11T07:41:04.818Z,99.99
2022-10-11T07:42:04.827Z,99.99
2022-10-11T07:43:04.815Z,99.99
2022-10-11T07:44:04.776Z,99.99
2022-10-11T07:45:04.727Z,99.99
2022-10-11T07:46:05.383Z,99.99
2022-10-11T07:47:10.972Z,99.99
2022-10-11T07:48:05.872Z,99.99
2022-10-11T07:49:04.740Z,99.99
2022-10-11T07:50:04.708Z,99.99
2022-10-11T07:51:04.668Z,99.99
2022-10-11T07:52:04.659Z,99.99
2022-10-11T07:53:04.654Z,99.99
2022-10-11T07:54:07.481Z,99.99
2022-10-11T07:55:04.609Z,99.99
2022-10-11T07:56:05.634Z,99.99
2022-10-11T07:57:04.846Z,99.99
2022-10-11T07:58:05.410Z,99.99
2022-10-11T07:59:04.541Z,99.99
2022-10-11T08:00:04.598Z,99.99
2022-10-11T08:01:05.502Z,99.99
2022-10-11T08:02:04.579Z,99.99
2022-10-11T08:03:05.708Z,99.99
2022-10-11T08:04:05.380Z,99.99
2022-10-11T08:05:05.258Z,99.99
2022-10-11T08:06:04.938Z,99.99
2022-10-11T08:07:04.444Z,99.99
2022-10-11T08:08:04.465Z,99.99
2022-10-11T08:09:04.483Z,99.99
2022-10-11T08:10:04.424Z,99.99
2022-10-11T08:11:04.536Z,99.99
2022-10-11T08:12:04.418Z,99.99
2022-10-11T08:13:05.276Z,99.99
2022-10-11T08:14:04.358Z,99.99
2022-10-11T08:15:04.330Z,99.99
2022-10-11T08:16:04.719Z,99.99
2022-10-11T08:17:05.170Z,99.99
2022-10-11T08:18:04.338Z,99.99
2022-10-11T08:19:05.197Z,99.99
2022-10-11T08:20:05.105Z,99.99
2022-10-11T08:21:04.294Z,99.99
2022-10-11T08:22:04.287Z,99.99
2022-10-11T08:23:04.251Z,99.99
2022-10-11T08:24:04.967Z,99.99
2022-10-11T08:25:04.236Z,99.99
2022-10-11T08:26:05.995Z,99.99
2022-10-11T08:27:04.949Z,99.99
2022-10-11T08:28:04.148Z,99.99
2022-10-11T08:29:04.191Z,99.99
2022-10-11T08:30:04.942Z,99.99
2022-10-11T08:31:05.204Z,99.99
2022-10-11T08:32:05.422Z,99.99
2022-10-11T08:33:08.377Z,99.99
2022-10-11T08:34:04.093Z,99.99
2022-10-11T08:35:04.238Z,99.99
2022-10-11T08:36:04.659Z,99.99
2022-10-11T08:37:04.120Z,99.99
2022-10-11T08:38:04.045Z,99.99
2022-10-11T08:39:04.020Z,99.99
2022-10-11T08:40:03.971Z,99.99
2022-10-11T08:41:03.962Z,99.99
2022-10-11T08:42:04.776Z,99.99
2022-10-11T08:43:04.935Z,99.99
2022-10-11T08:44:05.401Z,99.99
2022-10-11T08:45:12.416Z,99.99
2022-10-11T08:46:05.272Z,99.99
2022-10-11T08:47:03.854Z,99.99
2022-10-11T08:48:03.846Z,99.99
2022-10-11T08:49:04.613Z,99.99
2022-10-11T08:50:04.785Z,99.99
2022-10-11T08:51:04.731Z,99.99
2022-10-11T08:52:04.592Z,99.99
2022-10-11T08:53:04.756Z,99.99
2022-10-11T08:54:07.558Z,99.99
2022-10-11T08:55:05.234Z,99.99
2022-10-11T08:56:04.225Z,99.99
2022-10-11T08:57:03.773Z,99.99
2022-10-11T08:58:03.847Z,99.99
2022-10-11T08:59:03.747Z,99.99
2022-10-11T09:00:04.621Z,99.99
2022-10-11T09:01:03.799Z,99.99
2022-10-11T09:02:04.679Z,99.99
2022-10-11T09:03:08.640Z,99.99
2022-10-11T09:04:05.490Z,99.99
2022-10-11T09:05:04.657Z,99.99
2022-10-11T09:06:04.180Z,99.99
2022-10-11T09:07:05.025Z,99.99
2022-10-11T09:08:04.606Z,99.99
2022-10-11T09:09:03.619Z,99.99
2022-10-11T09:10:04.496Z,99.99
2022-10-11T09:11:03.598Z,99.99
2022-10-11T09:12:04.458Z,99.99
2022-10-11T09:13:03.636Z,99.99
2022-10-11T09:14:03.528Z,99.99
2022-10-11T09:15:03.498Z,99.99
2022-10-11T09:16:04.591Z,99.99
2022-10-11T09:17:04.235Z,99.99
2022-10-11T09:18:04.394Z,99.99
2022-10-11T09:19:03.472Z,99.99
2022-10-11T09:20:04.212Z,99.99
2022-10-11T09:21:03.528Z,99.99
2022-10-11T09:22:04.339Z,99.99
2022-10-11T09:23:04.185Z,99.99
2022-10-11T09:24:04.834Z,99.99
2022-10-11T09:25:04.232Z,99.99
2022-10-11T09:26:03.986Z,99.99
2022-10-11T09:27:03.569Z,99.99
2022-10-11T09:28:04.133Z,99.99
2022-10-11T09:29:03.733Z,99.99
2022-10-11T09:30:03.276Z,99.99
2022-10-11T09:31:03.615Z,99.99
2022-10-11T09:32:03.574Z,99.99
2022-10-11T09:33:03.358Z,99.99
2022-10-11T09:34:03.700Z,99.99
2022-10-11T09:35:03.495Z,99.99
2022-10-11T09:36:03.922Z,99.99
2022-10-11T09:37:03.524Z,99.99
2022-10-11T09:38:03.286Z,99.99
2022-10-11T09:39:06.698Z,99.99
2022-10-11T09:40:03.125Z,99.99
2022-10-11T09:41:03.208Z,99.99
2022-10-11T09:42:03.110Z,99.99
2022-10-11T09:43:03.247Z,99.99
2022-10-11T09:44:03.205Z,99.99
2022-10-11T09:45:03.111Z,99.99
2022-10-11T09:46:03.504Z,99.99
2022-10-11T09:47:03.059Z,99.99
2022-10-11T09:48:03.048Z,99.99
2022-10-11T09:49:03.062Z,99.99
2022-10-11T09:50:03.022Z,99.99
2022-10-11T09:51:03.006Z,99.99
2022-10-11T09:52:03.956Z,99.99
2022-10-11T09:53:03.007Z,99.99
2022-10-11T09:54:03.037Z,99.99
2022-10-11T09:55:03.051Z,99.99
2022-10-11T09:56:03.392Z,99.99
2022-10-11T09:57:03.721Z,99.99
2022-10-11T09:58:02.895Z,99.99
2022-10-11T09:59:02.933Z,99.99
2022-10-11T10:00:02.886Z,99.99
2022-10-11T10:01:07.986Z,99.99
2022-10-11T10:02:03.821Z,99.99
2022-10-11T10:03:02.975Z,99.99
2022-10-11T10:04:02.982Z,99.99
2022-10-11T10:05:03.043Z,99.99
2022-10-11T10:06:03.078Z,99.99
2022-10-11T10:07:02.966Z,99.99
2022-10-11T10:08:04.859Z,99.99
2022-10-11T10:09:02.985Z,99.99
2022-10-11T10:10:02.954Z,99.99
2022-10-11T10:11:02.723Z,99.99
2022-10-11T10:12:02.684Z,99.99
2022-10-11T10:13:02.762Z,99.99
2022-10-11T10:14:02.655Z,99.99
2022-10-11T10:15:02.725Z,99.99
2022-10-11T10:16:03.009Z,99.99
2022-10-11T10:17:03.586Z,99.51
2022-10-11T10:18:02.636Z,99.46
2022-10-11T10:19:02.976Z,99.41
2022-10-11T10:20:02.546Z,98.45
2022-10-11T10:21:02.526Z,96.58
2022-10-11T10:22:02.527Z,96.02
2022-10-11T10:23:02.498Z,94.45
2022-10-11T10:24:02.536Z,93.64
2022-10-11T10:25:02.496Z,92.68
2022-10-11T10:26:02.764Z,93.60
2022-10-11T10:27:02.487Z,93.35
2022-10-11T10:28:02.462Z,92.58
2022-10-11T10:29:02.433Z,93.40
2022-10-11T10:30:02.539Z,90.96
2022-10-11T10:31:03.277Z,90.90
2022-10-11T10:32:13.909Z,91.65
2022-10-11T10:33:04.361Z,91.19
2022-10-11T10:34:03.242Z,93.02
2022-10-11T10:35:02.387Z,91.43
2022-10-11T10:36:02.744Z,92.86
2022-10-11T10:37:02.352Z,92.25
2022-10-11T10:38:02.311Z,92.65
2022-10-11T10:39:02.377Z,91.27
2022-10-11T10:40:02.302Z,93.01
2022-10-11T10:41:02.339Z,91.27
2022-10-11T10:42:02.314Z,93.47
2022-10-11T10:43:02.328Z,90.62
2022-10-11T10:44:02.212Z,92.96
2022-10-11T10:45:02.193Z,90.72
2022-10-11T10:46:02.412Z,90.31
2022-10-11T10:47:02.197Z,89.36
2022-10-11T10:48:02.211Z,88.24
2022-10-11T10:49:28.699Z,88.65
2022-10-11T10:50:03.596Z,88.81
2022-10-11T10:51:02.119Z,88.97
2022-10-11T10:52:02.096Z,88.42
2022-10-11T10:53:02.227Z,86.76
2022-10-11T10:54:02.147Z,87.48
2022-10-11T10:55:02.195Z,85.66
2022-10-11T10:56:02.393Z,85.58
2022-10-11T10:57:02.104Z,85.64
2022-10-11T10:58:02.110Z,84.93
2022-10-11T10:59:02.037Z,83.82
2022-10-11T11:00:02.011Z,83.11
2022-10-11T11:01:01.968Z,82.60
2022-10-11T11:02:15.889Z,80.82
2022-10-11T11:03:03.082Z,81.06
2022-10-11T11:04:02.127Z,84.50
2022-10-11T11:05:02.252Z,83.94
2022-10-11T11:06:02.226Z,85.15
2022-10-11T11:07:01.881Z,86.27
2022-10-11T11:08:01.881Z,83.83
2022-10-11T11:09:02.365Z,83.73
2022-10-11T11:10:01.939Z,84.00
2022-10-11T11:11:01.873Z,84.20
2022-10-11T11:12:01.825Z,83.25
2022-10-11T11:13:01.905Z,83.04
2022-10-11T11:14:01.873Z,82.24
2022-10-11T11:15:01.832Z,79.57
2022-10-11T11:16:01.910Z,80.47
2022-10-11T11:17:01.764Z,82.97
2022-10-11T11:18:02.155Z,82.62
2022-10-11T11:19:01.927Z,81.21
2022-10-11T11:20:01.801Z,78.08
2022-10-11T11:21:01.857Z,80.91
2022-10-11T11:22:01.737Z,78.78
2022-10-11T11:23:02.248Z,80.71
2022-10-11T11:24:02.550Z,82.26
2022-10-11T11:25:01.748Z,77.50
2022-10-11T11:26:03.582Z,79.93
2022-10-11T11:27:01.779Z,79.36
2022-10-11T11:28:02.451Z,79.16
2022-10-11T11:29:01.630Z,80.68
2022-10-11T11:30:02.442Z,77.34
2022-10-11T11:31:02.498Z,81.09
2022-10-11T11:32:02.199Z,79.77
2022-10-11T11:33:02.445Z,76.97
2022-10-11T11:34:02.394Z,78.96
2022-10-11T11:35:01.713Z,81.79
2022-10-11T11:36:02.613Z,82.10
2022-10-11T11:37:02.480Z,80.44
2022-10-11T11:38:06.247Z,77.03
2022-10-11T11:39:02.566Z,79.16
2022-10-11T11:40:02.358Z,80.98
2022-10-11T11:41:01.495Z,80.27
2022-10-11T11:42:02.385Z,78.28
2022-10-11T11:43:01.404Z,78.79
2022-10-11T11:44:01.427Z,81.23
2022-10-11T11:45:01.421Z,80.05
2022-10-11T11:46:01.375Z,81.10
2022-10-11T11:47:01.448Z,81.30
2022-10-11T11:48:01.425Z,82.82
2022-10-11T11:49:01.337Z,81.64
2022-10-11T11:50:01.357Z,80.93
2022-10-11T11:51:01.338Z,81.74
2022-10-11T11:52:01.331Z,81.04
2022-10-11T11:53:01.434Z,80.57
2022-10-11T11:54:02.309Z,82.29
2022-10-11T11:55:04.011Z,80.77
2022-10-11T11:56:01.481Z,82.50
2022-10-11T11:57:01.220Z,82.80
2022-10-11T11:58:06.777Z,80.16
2022-10-11T11:59:02.300Z,83.81
2022-10-11T12:00:01.213Z,82.35
2022-10-11T12:01:01.199Z,83.77
2022-10-11T12:02:02.002Z,83.33
2022-10-11T12:03:01.190Z,83.63
2022-10-11T12:04:02.024Z,81.60
2022-10-11T12:05:01.123Z,82.58
2022-10-11T12:06:02.087Z,81.37
2022-10-11T12:07:15.861Z,80.55
2022-10-11T12:08:02.341Z,79.94
2022-10-11T12:09:01.804Z,79.34
2022-10-11T12:10:01.508Z,78.02
2022-10-11T12:11:01.318Z,78.02
2022-10-11T12:12:01.039Z,79.80
2022-10-11T12:13:01.927Z,78.39
2022-10-11T12:14:01.288Z,78.79
2022-10-11T12:15:01.237Z,79.00
2022-10-11T12:16:00.997Z,78.49
2022-10-11T12:17:01.297Z,77.98
2022-10-11T12:18:00.933Z,77.28
2022-10-11T12:19:01.096Z,80.11
2022-10-11T12:20:00.971Z,80.82
2022-10-11T12:21:00.901Z,78.19
2022-10-11T12:22:01.840Z,81.63
2022-10-11T12:23:01.730Z,80.41
2022-10-11T12:24:01.141Z,80.31
2022-10-11T12:25:00.863Z,80.01
2022-10-11T12:26:00.904Z,79.34
2022-10-11T12:27:01.610Z,81.26
2022-10-11T12:28:00.782Z,81.87
2022-10-11T12:29:00.961Z,78.97
2022-10-11T12:30:00.814Z,80.69
2022-10-11T12:31:00.761Z,81.13
2022-10-11T12:32:01.639Z,79.51
2022-10-11T12:33:02.189Z,81.48
2022-10-11T12:34:01.704Z,81.27
2022-10-11T12:35:00.734Z,82.80
2022-10-11T12:36:02.783Z,85.24
2022-10-11T12:37:04.592Z,83.85
2022-10-11T12:38:01.640Z,82.43
2022-10-11T12:39:01.498Z,84.20
2022-10-11T12:40:00.639Z,84.70
2022-10-11T12:41:01.619Z,84.20
2022-10-11T12:42:03.863Z,85.41
2022-10-11T12:43:01.735Z,85.05
2022-10-11T12:44:00.624Z,85.86
2022-10-11T12:45:00.546Z,85.55
2022-10-11T12:46:00.548Z,84.84
2022-10-11T12:47:00.607Z,83.01
2022-10-11T12:48:00.840Z,84.34
2022-10-11T12:49:01.307Z,85.55
2022-10-11T12:50:01.315Z,84.84
2022-10-11T12:51:03.169Z,84.44
2022-10-11T12:52:00.580Z,85.35